Time;durP1;ratioP1;P1;durP2;ratioP2;P2;SDS_P1;SDS_P2;PMS_P1;PMS_P2;Temp;Humidity;BMP_temperature;BMP_pressure;BME280_temperature;BME280_humidity;BME280_pressure;Samples;Min_cycle;Max_cycle;Signal;HPM_P1;HPM_P2
2022/04/18 00:02:08;;;;;;;17.48;10.82;;;;;;;0.98;69.61;102170.09;1660129;85;21814;-89
2022/04/18 00:04:37;;;;;;;17.10;10.00;;;;;;;1.11;69.65;102198.00;1636336;86;21246;-87
2022/04/18 00:07:05;;;;;;;16.73;9.65;;;;;;;1.10;69.67;102197.46;1640459;86;21115;-87
2022/04/18 00:09:37;;;;;;;14.33;9.48;;;;;;;1.07;69.74;102198.48;1633065;87;22605;-87
2022/04/18 00:12:04;;;;;;;15.88;9.70;;;;;;;1.04;69.80;102199.14;1637813;86;21133;-90
2022/04/18 00:14:31;;;;;;;15.25;9.18;;;;;;;1.03;69.93;102196.02;1639160;86;21172;-91
2022/04/18 00:16:58;;;;;;;19.12;10.15;;;;;;;1.02;70.02;102194.61;1637105;84;21188;-91
2022/04/18 00:19:25;;;;;;;15.40;9.23;;;;;;;1.02;70.17;102195.51;1723094;83;21078;-91
2022/04/18 00:22:05;;;;;;;16.17;9.48;;;;;;;1.03;70.26;102192.52;1723551;83;21876;-92
2022/04/18 00:25:25;;;;;;;15.68;9.55;;;;;;;0.94;70.28;102180.59;1693371;83;21046;-90
2022/04/18 00:32:08;;;;;;;15.63;8.80;;;;;;;1.01;70.37;102194.07;1723437;83;21065;-90
2022/04/18 00:38:38;;;;;;;15.08;8.38;;;;;;;0.96;70.52;102184.22;1723609;81;21095;-89
2022/04/18 00:41:25;;;;;;;19.73;10.38;;;;;;;0.94;70.41;102184.88;1723385;83;21655;-88
2022/04/18 00:45:03;;;;;;;20.25;9.98;;;;;;;0.92;70.38;102186.39;1694914;84;21117;-89
2022/04/18 00:47:52;;;;;;;18.50;9.95;;;;;;;0.90;70.33;102184.06;1694855;84;21599;-91
2022/04/18 00:50:20;;;;;;;17.52;11.15;;;;;;;0.86;70.37;102175.11;1695277;83;21065;-88
2022/04/18 00:52:46;;;;;;;18.02;10.40;;;;;;;0.83;70.39;102172.27;1713512;83;21774;-90
2022/04/18 00:55:28;;;;;;;13.55;9.98;;;;;;;0.82;70.46;102168.24;1710887;83;21049;-88
2022/04/18 00:57:56;;;;;;;16.42;10.23;;;;;;;0.78;70.48;102169.66;1710879;83;21110;-88
2022/04/18 01:00:29;;;;;;;17.07;10.85;;;;;;;0.75;70.58;102160.30;1699901;84;20995;-88
2022/04/18 01:02:56;;;;;;;18.20;10.98;;;;;;;0.71;70.65;102160.81;1691601;83;20995;-89
2022/04/18 01:05:32;;;;;;;20.50;11.75;;;;;;;0.53;70.67;102132.93;1713691;83;21850;-92
2022/04/18 01:07:59;;;;;;;20.70;12.15;;;;;;;0.66;70.77;102152.66;1702183;83;21054;-93
2022/04/18 01:11:12;;;;;;;19.52;11.83;;;;;;;0.64;70.85;102152.91;1713315;83;21023;-92
2022/04/18 01:13:43;;;;;;;20.02;13.22;;;;;;;0.62;70.85;102154.47;1695229;84;21069;-92
2022/04/18 01:16:18;;;;;;;21.87;14.00;;;;;;;0.58;70.92;102164.02;1701481;83;21054;-91
2022/04/18 01:19:04;;;;;;;24.47;14.05;;;;;;;0.55;70.99;102158.19;1693851;83;21765;-89
2022/04/18 01:21:32;;;;;;;23.42;14.03;;;;;;;0.54;71.07;102162.83;1687937;83;21078;-92
2022/04/18 01:23:58;;;;;;;22.42;12.85;;;;;;;0.52;71.19;102163.48;1688229;85;21096;-91
2022/04/18 01:29:38;;;;;;;23.62;14.13;;;;;;;0.48;71.22;102158.42;1690083;84;21057;-90
2022/04/18 01:32:10;;;;;;;20.90;13.08;;;;;;;0.47;71.32;102162.16;1687581;85;21733;-88
2022/04/18 01:34:40;;;;;;;22.85;13.08;;;;;;;0.46;71.38;102157.77;1693154;83;21061;-89
2022/04/18 01:37:22;;;;;;;28.00;13.70;;;;;;;0.45;71.48;102158.53;1705314;83;21051;-92
2022/04/18 01:39:49;;;;;;;23.98;13.20;;;;;;;0.32;71.49;102138.04;1714836;83;21167;-91
2022/04/18 01:45:38;;;;;;;22.40;12.95;;;;;;;0.42;71.63;102151.41;1689269;85;22701;-92
2022/04/18 01:48:05;;;;;;;23.83;13.58;;;;;;;0.43;71.78;102153.61;1659125;86;21038;-87
2022/04/18 01:50:33;;;;;;;25.30;13.25;;;;;;;0.41;71.83;102154.76;1687897;85;21166;-88
2022/04/18 01:53:07;;;;;;;25.27;13.58;;;;;;;0.40;71.86;102147.78;1687635;85;21614;-88
2022/04/18 01:55:41;;;;;;;26.10;13.95;;;;;;;0.41;71.91;102147.38;1688735;85;21670;-90
2022/04/18 01:58:12;;;;;;;22.65;12.65;;;;;;;0.39;71.90;102147.24;1665320;85;22632;-91
2022/04/18 02:01:02;;;;;;;21.90;12.65;;;;;;;0.38;72.00;102148.94;1688057;85;21113;-89
2022/04/18 02:03:29;;;;;;;24.95;12.55;;;;;;;0.38;72.08;102139.87;1687675;85;21093;-91
2022/04/18 02:06:01;;;;;;;22.87;11.68;;;;;;;0.40;72.12;102142.59;1662498;85;21804;-88
2022/04/18 02:08:47;;;;;;;20.88;13.22;;;;;;;0.39;72.17;102138.17;1688143;85;21117;-89
2022/04/18 02:11:28;;;;;;;20.08;12.13;;;;;;;0.40;72.26;102134.83;1688748;83;21726;-89
2022/04/18 02:13:55;;;;;;;20.60;12.15;;;;;;;0.40;72.31;102132.23;1688118;82;21062;-89
2022/04/18 02:16:22;;;;;;;22.87;13.15;;;;;;;0.38;72.31;102133.39;1692208;83;21016;-88
2022/04/18 02:18:50;;;;;;;21.68;12.40;;;;;;;0.37;72.38;102129.36;1699998;83;21071;-89
2022/04/18 02:21:19;;;;;;;20.62;12.28;;;;;;;0.37;72.38;102128.07;1747680;82;20840;-92
2022/04/18 02:23:52;;;;;;;20.60;11.90;;;;;;;0.37;72.44;102133.25;1752467;81;21796;-88
2022/04/18 02:26:19;;;;;;;22.00;12.60;;;;;;;0.35;72.51;102125.34;1690812;81;21639;-88
2022/04/18 02:28:46;;;;;;;20.00;12.10;;;;;;;0.34;72.50;102124.84;1713210;82;22046;-87
2022/04/18 02:31:12;;;;;;;20.72;10.75;;;;;;;0.36;72.57;102123.28;1700815;82;21149;-88
2022/04/18 02:33:41;;;;;;;21.00;12.65;;;;;;;0.36;72.55;102121.09;1693919;84;21038;-94
2022/04/18 02:36:10;;;;;;;24.55;12.07;;;;;;;0.35;72.57;102120.16;1693703;84;21827;-88
2022/04/18 02:38:37;;;;;;;20.57;12.25;;;;;;;0.35;72.60;102121.84;1696054;84;21074;-89
2022/04/18 02:41:11;;;;;;;23.42;12.58;;;;;;;0.35;72.65;102112.39;1688998;84;21070;-90
2022/04/18 02:43:38;;;;;;;21.48;12.50;;;;;;;0.35;72.61;102110.19;1687488;84;21118;-93
2022/04/18 02:46:07;;;;;;;19.92;11.88;;;;;;;0.33;72.63;102111.34;1688260;85;21089;-94
2022/04/18 02:48:34;;;;;;;18.82;11.93;;;;;;;0.33;72.68;102109.16;1687475;85;21828;-89
2022/04/18 02:51:13;;;;;;;18.82;11.63;;;;;;;0.31;72.73;102110.31;1694512;82;21031;-91
2022/04/18 02:53:40;;;;;;;19.98;11.80;;;;;;;0.32;72.78;102115.09;1698018;83;21097;-87
2022/04/18 02:56:13;;;;;;;19.00;11.05;;;;;;;0.32;72.85;102111.20;1703068;83;21587;-86
2022/04/18 02:58:43;;;;;;;19.98;11.78;;;;;;;0.32;72.91;102100.48;1683293;85;21107;-89
2022/04/18 03:01:10;;;;;;;21.15;11.85;;;;;;;0.33;72.88;102110.45;1695838;84;22479;-90
2022/04/18 03:03:37;;;;;;;19.57;11.50;;;;;;;0.32;72.89;102103.44;1699342;83;21032;-91
2022/04/18 03:06:10;;;;;;;19.85;11.48;;;;;;;0.32;72.87;102103.08;1683324;84;21007;-90
2022/04/18 03:12:36;;;;;;;23.57;12.15;;;;;;;0.31;72.90;102096.46;1703579;84;21044;-92
2022/04/18 03:15:10;;;;;;;16.23;10.43;;;;;;;0.30;73.00;102096.86;1683208;84;21818;-91
2022/04/18 03:17:36;;;;;;;20.52;11.65;;;;;;;0.29;73.06;102092.83;1701775;83;21039;-92
2022/04/18 03:20:25;;;;;;;20.12;11.18;;;;;;;0.31;73.13;102092.58;1659126;86;21070;-91
2022/04/18 03:23:07;;;;;;;14.28;10.20;;;;;;;0.30;73.20;102090.38;1658739;86;21074;-92
2022/04/18 03:25:48;;;;;;;14.90;10.28;;;;;;;0.23;73.25;102078.95;1657842;86;21043;-91
2022/04/18 03:28:15;;;;;;;15.50;9.70;;;;;;;0.33;73.28;102092.32;1657342;86;22561;-88
2022/04/18 03:30:45;;;;;;;17.90;10.60;;;;;;;0.34;73.29;102088.97;1687433;84;21042;-88
2022/04/18 03:33:23;;;;;;;18.05;10.00;;;;;;;0.36;73.31;102093.89;1697232;83;21046;-91
2022/04/18 03:41:39;;;;;;;17.95;10.53;;;;;;;0.46;73.38;102092.61;1696122;83;21794;-88
2022/04/18 03:44:29;;;;;;;18.42;10.10;;;;;;;0.51;73.41;102089.14;1697644;84;21055;-89
2022/04/18 03:46:57;;;;;;;15.45;10.10;;;;;;;0.53;73.45;102089.78;1700499;83;21094;-93
2022/04/18 03:49:24;;;;;;;15.98;10.25;;;;;;;0.58;73.46;102085.92;1706688;83;21071;-92
2022/04/18 03:51:53;;;;;;;17.65;10.18;;;;;;;0.65;73.46;102087.73;1707387;83;21057;-93
2022/04/18 03:54:20;;;;;;;16.95;9.58;;;;;;;0.68;73.44;102084.13;1711833;83;21774;-92
2022/04/18 03:56:46;;;;;;;17.65;9.65;;;;;;;0.74;73.46;102085.54;1705098;81;21026;-91
2022/04/18 03:59:13;;;;;;;16.32;10.60;;;;;;;0.83;73.50;102078.05;1703642;83;21109;-89
2022/04/18 04:01:45;;;;;;;18.37;10.05;;;;;;;1.15;74.17;102079.48;1714368;81;21081;-88
2022/04/18 04:04:12;;;;;;;16.02;10.13;;;;;;;2.10;75.12;102078.59;1719170;82;21136;-88
2022/04/18 04:06:40;;;;;;;18.35;9.68;;;;;;;3.18;74.64;102065.78;1664748;83;22475;-88
2022/04/18 04:09:07;;;;;;;14.00;9.68;;;;;;;4.15;73.65;102067.73;1692893;83;21027;-87
2022/04/18 04:11:33;;;;;;;11.78;8.55;;;;;;;5.00;72.61;102064.12;1703375;83;21078;-90
2022/04/18 04:14:03;;;;;;;15.32;9.83;;;;;;;5.83;71.71;102061.81;1701176;81;21078;-89
2022/04/18 04:16:32;;;;;;;13.83;9.33;;;;;;;6.57;70.52;102057.40;1677335;83;21285;-86
2022/04/18 04:19:05;;;;;;;11.65;7.62;;;;;;;7.32;69.29;102049.65;1684883;83;21795;-91
2022/04/18 04:21:33;;;;;;;15.65;8.10;;;;;;;7.96;68.35;102054.70;1657478;86;22039;-91
2022/04/18 04:24:01;;;;;;;12.18;7.97;;;;;;;8.60;67.30;102045.98;1662782;86;21057;-92
2022/04/18 04:26:50;;;;;;;10.70;7.22;;;;;;;9.21;66.15;102052.22;1660892;86;21555;-91
2022/04/18 04:29:18;;;;;;;12.93;7.60;;;;;;;9.81;65.19;102043.81;1662394;86;21796;-90
2022/04/18 04:31:44;;;;;;;11.18;7.42;;;;;;;10.56;64.41;102042.55;1662076;86;22630;-89
2022/04/18 04:34:18;;;;;;;11.00;6.53;;;;;;;11.28;63.48;102041.81;1669046;85;21087;-89
2022/04/18 04:36:44;;;;;;;9.73;7.05;;;;;;;11.95;62.56;102041.06;1662170;86;21065;-91
2022/04/18 04:39:11;;;;;;;9.10;6.45;;;;;;;12.65;61.26;102035.41;1660963;85;21088;-91
2022/04/18 04:41:38;;;;;;;9.23;6.55;;;;;;;13.16;60.21;102038.12;1668103;84;21082;-90
2022/04/18 04:44:06;;;;;;;8.68;6.10;;;;;;;13.82;59.45;102038.59;1660588;86;21750;-90
2022/04/18 04:46:34;;;;;;;8.53;5.92;;;;;;;14.31;58.33;102031.73;1661381;85;21204;-88
2022/04/18 04:49:07;;;;;;;9.08;5.70;;;;;;;14.88;57.44;102036.05;1661244;84;21065;-89
2022/04/18 04:51:34;;;;;;;8.63;6.03;;;;;;;15.34;56.19;102035.97;1661961;86;21226;-91
2022/04/18 04:54:01;;;;;;;7.90;5.97;;;;;;;15.89;55.42;102027.62;1660854;86;21099;-91
2022/04/18 04:56:28;;;;;;;6.83;5.10;;;;;;;16.18;54.37;102030.03;1662022;84;21758;-91
2022/04/18 04:58:57;;;;;;;8.55;5.67;;;;;;;16.49;53.58;102016.98;1662779;86;21744;-91
2022/04/18 05:01:23;;;;;;;7.50;5.80;;;;;;;17.05;53.41;102021.68;1662614;84;21072;-90
2022/04/18 05:03:51;;;;;;;13.45;5.90;;;;;;;17.67;52.88;102016.53;1661676;84;21080;-88
2022/04/18 05:06:38;;;;;;;6.58;5.50;;;;;;;18.35;51.94;102020.21;1660029;86;21056;-92
2022/04/18 05:09:33;;;;;;;8.08;5.47;;;;;;;18.73;50.56;102018.89;1660245;86;22429;-92
2022/04/18 05:12:04;;;;;;;7.80;5.72;;;;;;;18.95;49.79;102020.95;1659300;86;21116;-88
2022/04/18 05:14:38;;;;;;;8.73;5.65;;;;;;;19.26;48.93;102018.61;1633155;87;21122;-89
2022/04/18 05:17:15;;;;;;;7.53;5.67;;;;;;;19.14;48.16;102022.03;1649811;85;21088;-89
2022/04/18 05:19:42;;;;;;;10.38;5.72;;;;;;;18.28;46.82;102021.00;1686975;81;21068;-90
2022/04/18 05:22:09;;;;;;;7.70;5.55;;;;;;;17.00;45.98;102029.55;1700151;84;21814;-89
2022/04/18 05:24:39;;;;;;;7.15;6.08;;;;;;;15.74;46.03;102022.84;1695991;84;21035;-91
2022/04/18 05:27:07;;;;;;;7.70;5.47;;;;;;;14.41;46.25;102003.76;1689852;83;21060;-88
2022/04/18 05:29:34;;;;;;;9.68;6.20;;;;;;;13.49;47.13;102035.28;1698639;84;21013;-93
2022/04/18 05:32:01;;;;;;;6.75;5.33;;;;;;;12.78;47.95;102032.77;1685652;84;21059;-90
2022/04/18 05:34:27;;;;;;;6.83;4.58;;;;;;;12.21;48.41;102033.29;1699688;84;22568;-93
2022/04/18 05:36:54;;;;;;;7.12;4.53;;;;;;;11.66;49.00;102038.55;1704093;84;21070;-90
2022/04/18 05:39:28;;;;;;;6.15;4.42;;;;;;;11.12;49.70;102038.02;1710617;82;21497;-89
2022/04/18 05:41:56;;;;;;;;;;;;;;;10.73;50.37;102038.05;1701195;82;21139;-87
2022/04/18 05:44:23;;;;;;;5.58;4.10;;;;;;;10.41;50.76;102038.38;1700629;84;20922;-89
2022/04/18 05:46:54;;;;;;;4.85;3.60;;;;;;;10.03;51.50;102045.34;1700332;83;22533;-90
2022/04/18 05:49:20;;;;;;;5.28;3.17;;;;;;;9.73;52.10;102047.39;1695812;84;21075;-89
2022/04/18 05:51:51;;;;;;;4.15;2.90;;;;;;;9.29;52.70;102017.14;1723581;82;21135;-92
2022/04/18 05:54:20;;;;;;;8.63;3.00;;;;;;;9.25;53.29;102045.41;1701325;84;21060;-92
2022/04/18 05:56:49;;;;;;;5.20;3.10;;;;;;;9.01;53.67;102045.97;1699396;84;21885;-92
2022/04/18 05:59:28;;;;;;;7.95;3.58;;;;;;;8.73;54.09;102043.19;1658982;84;21822;-90
2022/04/18 06:01:55;;;;;;;6.20;3.47;;;;;;;8.58;54.70;102047.63;1710883;83;21591;-89
2022/04/18 06:04:31;;;;;;;3.98;2.98;;;;;;;8.42;55.02;102050.23;1724605;82;21057;-88
2022/04/18 06:07:27;;;;;;;7.83;4.08;;;;;;;8.14;55.41;102056.11;1719725;83;21109;-90
2022/04/18 06:09:55;;;;;;;5.55;3.72;;;;;;;7.88;55.83;102053.75;1699950;83;21107;-91
2022/04/18 06:12:27;;;;;;;5.08;3.77;;;;;;;7.65;56.36;102049.83;1676295;85;21867;-87
2022/04/18 06:14:54;;;;;;;5.72;3.75;;;;;;;7.50;56.80;102052.05;1685523;83;21131;-94
2022/04/18 06:17:24;;;;;;;6.17;4.03;;;;;;;7.36;57.14;102048.62;1685338;85;21079;-89
2022/04/18 06:19:51;;;;;;;9.78;5.53;;;;;;;7.28;57.46;102049.91;1724248;81;21626;-85
2022/04/18 06:22:18;;;;;;;17.77;8.78;;;;;;;7.26;57.67;102050.61;1727940;81;21782;-90
2022/04/18 06:24:45;;;;;;;30.75;18.20;;;;;;;7.16;57.95;102034.77;1733207;80;21779;-91
2022/04/18 06:27:11;;;;;;;226.35;167.05;;;;;;;7.23;58.16;102047.83;1695647;83;21047;-86
2022/04/18 06:29:38;;;;;;;58.33;52.08;;;;;;;7.24;58.35;102054.44;1692328;84;21070;-89
2022/04/18 06:32:06;;;;;;;20.62;14.58;;;;;;;7.20;58.13;102062.52;1690215;82;21113;-87
2022/04/18 06:34:33;;;;;;;10.75;6.87;;;;;;;7.17;58.35;102058.80;1690134;84;21101;-86
2022/04/18 06:37:00;;;;;;;9.83;5.58;;;;;;;7.13;58.64;102055.52;1690442;82;21203;-88
2022/04/18 06:39:27;;;;;;;6.95;5.30;;;;;;;7.09;58.85;102053.11;1702375;82;21110;-88
2022/04/18 06:41:55;;;;;;;13.95;8.40;;;;;;;7.12;59.12;102054.62;1697361;82;21177;-86
2022/04/18 06:44:22;;;;;;;9.03;5.20;;;;;;;7.17;59.25;102060.11;1715113;81;21219;-92
2022/04/18 06:46:49;;;;;;;11.57;5.92;;;;;;;7.18;59.08;102058.01;1700069;81;21046;-89
2022/04/18 06:49:16;;;;;;;9.08;5.70;;;;;;;7.18;59.14;102058.01;1715738;81;21924;-92
2022/04/18 06:51:48;;;;;;;11.12;7.05;;;;;;;7.19;59.31;102064.66;1709853;82;21065;-88
2022/04/18 06:54:18;;;;;;;21.75;17.50;;;;;;;7.19;59.37;102055.91;1713370;82;21072;-87
2022/04/18 06:57:00;;;;;;;12.23;9.18;;;;;;;7.24;59.56;102062.70;1715457;81;21043;-86
2022/04/18 06:59:28;;;;;;;10.00;6.67;;;;;;;7.32;59.83;102062.74;1687259;82;21073;-92
2022/04/18 07:02:04;;;;;;;11.97;7.15;;;;;;;7.38;59.98;102062.72;1719145;82;21789;-93
2022/04/18 07:04:31;;;;;;;13.65;7.47;;;;;;;7.44;59.55;102060.86;1645676;84;21098;-92
2022/04/18 07:06:59;;;;;;;11.55;6.42;;;;;;;7.46;59.67;102064.89;1678515;83;21035;-84
2022/04/18 07:09:25;;;;;;;13.50;8.23;;;;;;;7.48;59.68;102065.47;1699683;83;21125;-89
2022/04/18 07:11:59;;;;;;;8.40;6.25;;;;;;;7.47;59.74;102064.98;1705930;80;21109;-85
2022/04/18 07:14:30;;;;;;;10.98;7.58;;;;;;;7.48;59.54;102061.95;1697331;84;21770;-83
2022/04/18 07:16:57;;;;;;;8.40;6.25;;;;;;;7.48;59.51;102061.53;1677782;83;21054;-84
2022/04/18 07:19:24;;;;;;;10.88;6.47;;;;;;;7.50;59.86;102054.66;1702230;82;21827;-85
2022/04/18 07:21:53;;;;;;;10.45;6.05;;;;;;;7.50;59.50;102054.66;1712647;82;21095;-92
2022/04/18 07:24:39;;;;;;;9.63;5.50;;;;;;;7.54;59.59;102062.30;1740275;81;21054;-91
2022/04/18 07:27:07;;;;;;;6.87;5.50;;;;;;;7.56;59.69;102057.66;1702781;83;21822;-85
2022/04/18 07:29:34;;;;;;;13.35;6.55;;;;;;;7.58;59.52;102065.20;1684849;81;21159;-85
2022/04/18 07:32:01;;;;;;;13.22;7.97;;;;;;;7.57;59.47;102063.80;1713920;81;21283;-85
2022/04/18 07:34:29;;;;;;;13.85;10.23;;;;;;;7.54;59.59;102064.50;1702981;81;21087;-84
2022/04/18 07:36:56;;;;;;;12.00;7.70;;;;;;;7.60;59.31;102065.27;1718065;81;21087;-84
2022/04/18 07:39:23;;;;;;;10.00;7.58;;;;;;;7.64;59.01;102056.80;1717103;81;21764;-83
2022/04/18 07:41:53;;;;;;;11.75;6.17;;;;;;;7.64;59.09;102062.03;1720602;82;22253;-85
2022/04/18 07:44:20;;;;;;;11.08;6.53;;;;;;;7.66;58.68;102055.55;1718575;81;21083;-82
2022/04/18 07:46:47;;;;;;;12.65;5.70;;;;;;;7.71;58.65;102060.23;1717301;82;21054;-85
2022/04/18 07:49:14;;;;;;;8.93;6.00;;;;;;;7.77;58.71;102060.61;1716248;81;21095;-87
2022/04/18 07:51:42;;;;;;;9.68;6.42;;;;;;;7.84;58.57;102062.27;1714477;82;21752;-84
2022/04/18 07:54:14;;;;;;;10.18;5.50;;;;;;;7.83;58.44;102062.69;1713347;81;21522;-88
2022/04/18 07:56:46;;;;;;;9.35;6.62;;;;;;;7.87;58.46;102060.72;1713347;81;21033;-84
2022/04/18 07:59:13;;;;;;;13.15;7.58;;;;;;;7.93;58.37;102059.75;1714754;82;21043;-86
2022/04/18 08:01:46;;;;;;;12.20;6.70;;;;;;;7.96;58.18;102062.56;1690900;82;21082;-88
2022/04/18 08:04:17;;;;;;;12.35;6.67;;;;;;;8.02;58.20;102064.63;1715605;80;22583;-87
2022/04/18 08:06:44;;;;;;;8.38;6.33;;;;;;;8.04;58.28;102053.81;1687326;83;21120;-87
2022/04/18 08:09:14;;;;;;;11.22;6.47;;;;;;;8.10;58.23;102055.88;1657510;84;21032;-87
2022/04/18 08:11:41;;;;;;;8.18;5.65;;;;;;;8.13;57.86;102056.06;1685352;83;21143;-86
2022/04/18 08:14:08;;;;;;;9.53;6.25;;;;;;;8.12;57.96;102055.13;1715119;82;21029;-88
2022/04/18 08:16:34;;;;;;;10.50;6.40;;;;;;;8.14;57.77;102053.50;1708871;83;21765;-85
2022/04/18 08:19:04;;;;;;;9.40;6.47;;;;;;;8.14;57.94;102052.18;1711202;81;21084;-87
2022/04/18 08:21:45;;;;;;;7.03;5.70;;;;;;;8.21;57.83;102056.48;1720812;81;21725;-90
2022/04/18 08:24:14;;;;;;;11.38;6.87;;;;;;;8.24;57.41;102044.83;1699404;82;21051;-90
2022/04/18 08:26:45;;;;;;;6.72;5.37;;;;;;;8.25;56.71;102046.23;1685325;83;21583;-88
2022/04/18 08:29:18;;;;;;;7.83;6.05;;;;;;;8.27;56.63;102041.97;1675382;84;21835;-88
2022/04/18 08:31:51;;;;;;;10.30;5.92;;;;;;;8.27;56.04;102044.59;1671211;84;21179;-88
2022/04/18 08:34:49;;;;;;;8.23;5.33;;;;;;;8.32;55.81;102037.88;1676196;84;21101;-94
2022/04/18 08:37:20;;;;;;;7.08;5.55;;;;;;;8.36;55.50;102035.91;1692317;83;21331;-91
2022/04/18 08:39:47;;;;;;;7.62;5.35;;;;;;;8.44;55.18;102029.80;1737471;81;21019;-88
2022/04/18 08:42:14;;;;;;;7.92;5.47;;;;;;;8.49;54.33;102027.44;1730193;81;21746;-90
2022/04/18 08:45:10;;;;;;;9.38;6.20;;;;;;;8.56;54.31;102029.58;1701346;81;21714;-90
2022/04/18 08:53:15;;;;;;;9.60;5.35;;;;;;;8.66;53.43;102020.05;1718639;83;21126;-87
2022/04/18 08:55:50;;;;;;;8.70;5.20;;;;;;;8.75;53.31;102023.17;1719497;81;21063;-88
2022/04/18 08:58:17;;;;;;;9.58;5.35;;;;;;;8.75;52.68;102022.27;1725654;82;21054;-91
2022/04/18 09:01:37;;;;;;;14.10;9.70;;;;;;;8.77;52.19;102021.05;1722821;82;21122;-91
2022/04/18 09:04:04;;;;;;;10.72;5.45;;;;;;;8.80;51.81;102015.94;1700181;83;21181;-91
2022/04/18 09:06:32;;;;;;;7.78;5.05;;;;;;;8.86;51.93;102023.74;1716778;83;21034;-92
2022/04/18 09:09:15;;;;;;;5.65;4.45;;;;;;;8.89;51.66;102013.37;1716957;83;21754;-94
2022/04/18 09:12:03;;;;;;;8.78;5.78;;;;;;;8.88;51.27;102021.20;1692061;83;21322;-93
2022/04/18 09:14:39;;;;;;;7.87;4.95;;;;;;;8.81;51.47;102015.12;1731459;81;20983;-94
2022/04/18 09:17:20;;;;;;;13.38;7.45;;;;;;;8.83;51.40;102005.19;1743151;81;21063;-91
2022/04/18 09:19:42;;;;;;;10.48;5.35;;;;;;;8.87;51.13;102004.52;1721645;82;21060;-94
2022/04/18 09:22:24;;;;;;;6.45;5.55;;;;;;;8.91;51.44;102001.22;1701680;84;21355;-92
2022/04/18 09:25:01;;;;;;;9.48;5.90;;;;;;;8.89;50.74;102004.61;1704184;83;21086;-89
2022/04/18 09:27:32;;;;;;;10.10;5.60;;;;;;;8.91;51.26;101991.14;1700808;83;20973;-93
2022/04/18 09:30:41;;;;;;;7.25;5.17;;;;;;;8.99;51.30;101999.41;1677129;82;21089;-93
2022/04/18 09:33:20;;;;;;;8.28;5.75;;;;;;;9.00;51.46;101990.72;1713027;82;21434;-91
2022/04/18 09:35:47;;;;;;;9.10;6.10;;;;;;;8.98;51.16;101984.08;1701763;83;21757;-87
2022/04/18 09:38:28;;;;;;;;;;;;;;;;;;;;;
2022/04/18 09:40:48;;;;;;;10.20;5.55;;;;;;;8.84;50.55;101957.51;1659386;84;21000;-91
2022/04/18 09:43:28;;;;;;;6.60;4.80;;;;;;;8.97;50.79;101977.00;1666758;84;21714;-89
2022/04/18 09:46:03;;;;;;;5.17;4.40;;;;;;;8.99;49.49;101976.70;1698876;83;21583;-87
2022/04/18 09:48:33;;;;;;;6.47;5.10;;;;;;;8.97;49.16;101970.44;1686104;83;21070;-89
2022/04/18 09:51:10;;;;;;;8.78;5.12;;;;;;;8.99;49.03;101964.88;1714937;81;21537;-86
2022/04/18 09:53:40;;;;;;;5.28;4.33;;;;;;;9.01;49.09;101973.73;1713854;83;21084;-86
2022/04/18 09:56:18;;;;;;;6.67;4.67;;;;;;;9.04;48.85;101958.11;1701419;83;21643;-88
2022/04/18 09:59:04;;;;;;;5.47;4.62;;;;;;;9.12;48.60;101955.87;1703447;82;21511;-88
2022/04/18 10:01:35;;;;;;;7.70;4.50;;;;;;;9.18;48.22;101958.83;1709191;81;21079;-89
2022/04/18 10:04:05;;;;;;;7.95;5.20;;;;;;;9.21;48.20;101946.25;1700365;82;21107;-88
2022/04/18 10:06:36;;;;;;;5.78;4.80;;;;;;;9.24;48.00;101949.93;1653313;84;21662;-93
2022/04/18 10:09:03;;;;;;;9.58;5.67;;;;;;;9.25;47.77;101950.44;1704265;81;21135;-90
2022/04/18 10:11:32;;;;;;;7.20;5.25;;;;;;;9.28;47.92;101935.22;1686718;83;21112;-89
2022/04/18 10:13:59;;;;;;;10.08;5.17;;;;;;;9.27;47.40;101938.27;1671796;81;22535;-91
2022/04/18 10:16:25;;;;;;;7.22;5.40;;;;;;;9.31;47.63;101935.38;1701272;83;21039;-88
2022/04/18 10:19:07;;;;;;;6.28;5.10;;;;;;;9.29;47.25;101926.11;1728028;79;21323;-87
2022/04/18 10:21:32;;;;;;;9.18;5.53;;;;;;;9.30;46.72;101929.63;1678057;82;21297;-87
2022/04/18 10:24:22;;;;;;;6.15;4.47;;;;;;;9.30;46.86;101929.20;1659926;84;21596;-92
2022/04/18 10:27:24;;;;;;;7.12;5.25;;;;;;;9.31;46.23;101928.81;1552708;90;21810;-87
2022/04/18 10:30:25;;;;;;;6.75;5.08;;;;;;;9.28;46.05;101922.08;1558040;90;21086;-95
2022/04/18 10:33:05;;;;;;;8.88;5.70;;;;;;;9.27;45.76;101936.95;1542831;90;21180;-91
2022/04/18 10:36:03;;;;;;;8.95;5.87;;;;;;;9.20;45.33;101918.20;1552784;91;21113;-92
2022/04/18 10:38:37;;;;;;;8.45;5.85;;;;;;;9.23;45.56;101923.58;1529654;93;21094;-94
2022/04/18 10:41:35;;;;;;;7.08;5.30;;;;;;;9.32;45.29;101922.30;1543584;90;21259;-93
2022/04/18 10:44:09;;;;;;;7.50;5.40;;;;;;;9.43;45.48;101911.42;1551330;92;21144;-90
2022/04/18 10:47:05;;;;;;;10.08;5.97;;;;;;;9.50;44.65;101917.04;1552918;92;21059;-92
2022/04/18 10:49:30;;;;;;;7.92;5.30;;;;;;;9.44;44.63;101914.52;1550170;90;21106;-93
2022/04/18 10:52:08;;;;;;;13.20;9.60;;;;;;;9.44;44.44;101912.81;1530355;90;21109;-91
2022/04/18 10:55:02;;;;;;;10.95;7.78;;;;;;;9.49;44.56;101902.51;1556545;89;21818;-93
2022/04/18 10:58:18;;;;;;;6.97;5.35;;;;;;;9.48;44.43;101903.35;1597507;89;21523;-95
2022/04/18 11:00:52;;;;;;;7.62;4.60;;;;;;;9.43;43.83;101895.66;1557710;89;21702;-88
2022/04/18 11:03:39;;;;;;;9.15;6.10;;;;;;;9.40;44.01;101893.75;1567803;87;21095;-94
2022/04/18 11:06:57;;;;;;;7.33;5.47;;;;;;;9.40;43.38;101892.86;1608333;88;21665;-95
2022/04/18 11:10:25;;;;;;;8.78;6.42;;;;;;;9.43;43.23;101886.03;1627525;86;21786;-92
2022/04/18 11:13:02;;;;;;;7.83;7.00;;;;;;;9.43;43.22;101881.20;1632320;86;21120;-94
2022/04/18 11:16:22;;;;;;;6.42;5.42;;;;;;;9.45;43.36;101887.42;1631165;86;21047;-93
2022/04/18 11:19:24;;;;;;;8.73;5.50;;;;;;;9.41;43.32;101879.80;1567948;89;21444;-93
2022/04/18 11:22:23;;;;;;;6.87;4.92;;;;;;;9.41;43.32;101881.13;1590616;88;21118;-91
2022/04/18 11:24:59;;;;;;;7.87;5.12;;;;;;;9.40;42.68;101885.88;1600733;87;21854;-87
2022/04/18 11:27:31;;;;;;;9.28;5.42;;;;;;;9.44;42.92;101877.73;1578676;89;21178;-88
2022/04/18 11:30:12;;;;;;;7.62;5.67;;;;;;;9.48;42.69;101883.64;1610007;87;21171;-91
2022/04/18 11:32:44;;;;;;;7.03;5.15;;;;;;;9.43;42.57;101869.38;1609032;87;21161;-89
2022/04/18 11:35:26;;;;;;;10.43;4.30;;;;;;;9.41;43.10;101869.30;1602936;89;21162;-95
2022/04/18 11:37:52;;;;;;;7.67;4.60;;;;;;;9.44;42.96;101873.39;1621001;87;21735;-93
2022/04/18 11:40:19;;;;;;;9.03;5.42;;;;;;;9.47;42.72;101863.01;1638887;86;21379;-89
2022/04/18 11:42:48;;;;;;;6.45;4.85;;;;;;;9.51;43.15;101868.88;1664367;84;21157;-89
2022/04/18 11:45:29;;;;;;;10.10;5.40;;;;;;;9.55;42.34;101877.81;1646140;86;21154;-90
2022/04/18 11:48:13;;;;;;;7.37;4.80;;;;;;;9.52;42.39;101856.67;1634215;86;21105;-94
2022/04/18 11:50:46;;;;;;;6.35;5.60;;;;;;;9.52;42.46;101872.02;1643412;86;21796;-92
2022/04/18 11:53:33;;;;;;;7.12;5.20;;;;;;;9.50;42.51;101862.27;1621497;86;21102;-90
2022/04/18 11:56:05;;;;;;;9.43;5.22;;;;;;;9.48;42.61;101848.16;1717822;81;21054;-87
2022/04/18 11:58:50;;;;;;;12.98;6.97;;;;;;;9.46;42.06;101845.84;1722155;83;21049;-93
2022/04/18 12:07:06;;;;;;;10.35;7.40;;;;;;;9.36;41.92;101837.05;1672625;84;21306;-93
2022/04/18 12:09:34;;;;;;;10.45;6.53;;;;;;;9.34;42.23;101815.95;1671124;83;22324;-89
2022/04/18 12:12:08;;;;;;;9.73;7.08;;;;;;;9.44;42.02;101823.46;1706777;81;21065;-89
2022/04/18 12:14:40;;;;;;;9.38;7.25;;;;;;;9.46;42.65;101818.25;1672939;83;21070;-91
2022/04/18 12:17:13;;;;;;;8.83;6.30;;;;;;;9.50;42.04;101829.42;1698398;81;21778;-89
2022/04/18 12:19:41;;;;;;;7.90;5.70;;;;;;;9.44;42.13;101809.39;1691966;84;21114;-91
2022/04/18 12:22:22;;;;;;;9.23;6.95;;;;;;;9.49;41.79;101811.84;1670119;83;21108;-90
2022/04/18 12:27:52;;;;;;;8.00;6.28;;;;;;;9.47;41.73;101806.50;1672624;83;21658;-87
2022/04/18 12:30:13;;;;;;;13.80;6.80;;;;;;;9.46;41.50;101798.54;1659332;84;21742;-86
2022/04/18 12:32:44;;;;;;;9.45;7.35;;;;;;;9.47;41.57;101802.98;1670218;84;22223;-87
2022/04/18 12:35:15;;;;;;;13.78;9.48;;;;;;;9.37;41.49;101792.47;1676031;84;21633;-91
2022/04/18 12:37:48;;;;;;;8.60;6.08;;;;;;;9.32;41.44;101798.80;1677868;83;21098;-90